AAL440 KLAS-KPHX
Flight info
| Callsign | AAL440 |
|---|---|
| Flight time | 0h 52m |
| Altitude | 29000 |
| Route | RASLR3 ZAYNE WOTRO BRUSR1 |
| Aircraft | A321/M-SDE3FGHIRWY/LB1 |
Departure
| Time | 2026-05-07 20:50 |
|---|---|
| Airport | Harry Reid International Airport (KLAS) |
Arrival
| Time | 2026-05-07 21:42 |
|---|---|
| Airport | Phoenix Sky Harbor International Airport (KPHX) |
| Time | Latitude | Longitude | Altitude | Speed | Heading |
|---|---|---|---|---|---|
| 2026-05-07 20:13 | 36.08018 | -115.13612 | 2121 ft | 0 kts | 67° |
| 2026-05-07 20:39 | 36.08016 | -115.13616 | 2119 ft | 3 kts | 67° |
| 2026-05-07 20:39 | 36.08006 | -115.13646 | 2119 ft | 4 kts | 68° |
| 2026-05-07 20:40 | 36.07999 | -115.13675 | 2121 ft | 4 kts | 80° |
| 2026-05-07 20:40 | 36.07997 | -115.13707 | 2119 ft | 4 kts | 103° |
| 2026-05-07 20:40 | 36.08007 | -115.13732 | 2121 ft | 1 kts | 136° |
| 2026-05-07 20:40 | 36.08010 | -115.13737 | 2120 ft | 2 kts | 136° |
| 2026-05-07 20:42 | 36.08002 | -115.13726 | 2122 ft | 7 kts | 136° |
| 2026-05-07 20:42 | 36.07976 | -115.13696 | 2122 ft | 7 kts | 135° |
| 2026-05-07 20:43 | 36.07936 | -115.13646 | 2123 ft | 6 kts | 134° |
| 2026-05-07 20:43 | 36.07919 | -115.13623 | 2122 ft | 0 kts | 133° |
| 2026-05-07 20:46 | 36.07889 | -115.13591 | 2123 ft | 8 kts | 139° |
| 2026-05-07 20:46 | 36.07862 | -115.13560 | 2125 ft | 8 kts | 137° |
| 2026-05-07 20:46 | 36.07832 | -115.13514 | 2125 ft | 6 kts | 105° |
| 2026-05-07 20:47 | 36.07827 | -115.13449 | 2126 ft | 7 kts | 90° |
| 2026-05-07 20:47 | 36.07826 | -115.13399 | 2126 ft | 11 kts | 90° |
| 2026-05-07 20:47 | 36.07826 | -115.13286 | 2124 ft | 15 kts | 90° |
| 2026-05-07 20:47 | 36.07827 | -115.13144 | 2121 ft | 15 kts | 90° |
| 2026-05-07 20:48 | 36.07827 | -115.13014 | 2120 ft | 15 kts | 89° |
| 2026-05-07 20:48 | 36.07828 | -115.12875 | 2119 ft | 17 kts | 90° |
| 2026-05-07 20:48 | 36.07828 | -115.12715 | 2115 ft | 20 kts | 90° |
| 2026-05-07 20:48 | 36.07797 | -115.12641 | 2116 ft | 8 kts | 177° |
| 2026-05-07 20:49 | 36.07754 | -115.12620 | 2120 ft | 6 kts | 151° |
| 2026-05-07 20:49 | 36.07719 | -115.12600 | 2120 ft | 5 kts | 165° |
| 2026-05-07 20:49 | 36.07678 | -115.12602 | 2122 ft | 9 kts | 192° |
| 2026-05-07 20:49 | 36.07642 | -115.12693 | 2124 ft | 24 kts | 271° |
| 2026-05-07 20:50 | 36.07641 | -115.13231 | 2129 ft | 98 kts | 270° |
| 2026-05-07 20:50 | 36.07640 | -115.14318 | 2122 ft | 155 kts | 270° |
| 2026-05-07 20:50 | 36.07634 | -115.15838 | 2243 ft | 189 kts | 269° |
| 2026-05-07 20:50 | 36.07634 | -115.17473 | 2914 ft | 192 kts | 270° |
| 2026-05-07 20:51 | 36.07634 | -115.19124 | 3644 ft | 192 kts | 270° |
| 2026-05-07 20:51 | 36.07610 | -115.20851 | 4094 ft | 211 kts | 264° |
| 2026-05-07 20:51 | 36.07381 | -115.22733 | 4358 ft | 231 kts | 260° |
| 2026-05-07 20:51 | 36.06970 | -115.24704 | 4493 ft | 250 kts | 242° |
| 2026-05-07 20:52 | 36.05775 | -115.26318 | 4884 ft | 263 kts | 211° |
| 2026-05-07 20:52 | 36.04036 | -115.27229 | 5284 ft | 275 kts | 200° |
| 2026-05-07 20:52 | 36.02237 | -115.28034 | 5919 ft | 279 kts | 200° |
| 2026-05-07 20:52 | 36.00341 | -115.28617 | 6614 ft | 283 kts | 182° |
| 2026-05-07 20:53 | 35.98395 | -115.28163 | 7207 ft | 289 kts | 155° |
| 2026-05-07 20:53 | 35.96771 | -115.26725 | 7830 ft | 293 kts | 138° |
| 2026-05-07 20:53 | 35.95238 | -115.25037 | 8468 ft | 298 kts | 138° |
| 2026-05-07 20:53 | 35.93672 | -115.23302 | 9089 ft | 302 kts | 138° |
| 2026-05-07 20:54 | 35.92125 | -115.21560 | 9713 ft | 306 kts | 134° |
| 2026-05-07 20:54 | 35.90774 | -115.19486 | 10200 ft | 317 kts | 121° |
| 2026-05-07 20:54 | 35.89602 | -115.17074 | 10331 ft | 338 kts | 119° |
| 2026-05-07 20:54 | 35.88373 | -115.14522 | 10705 ft | 349 kts | 120° |
| 2026-05-07 20:55 | 35.87145 | -115.11952 | 11278 ft | 352 kts | 116° |
| 2026-05-07 20:55 | 35.86184 | -115.09163 | 11900 ft | 353 kts | 105° |
| 2026-05-07 20:55 | 35.85487 | -115.06256 | 12484 ft | 354 kts | 104° |
| 2026-05-07 20:55 | 35.84791 | -115.03356 | 13120 ft | 355 kts | 105° |
| 2026-05-07 20:56 | 35.84081 | -115.00416 | 13746 ft | 357 kts | 105° |
| 2026-05-07 20:56 | 35.83362 | -114.97459 | 14306 ft | 360 kts | 105° |
| 2026-05-07 20:56 | 35.82646 | -114.94516 | 14851 ft | 363 kts | 104° |
| 2026-05-07 20:56 | 35.81917 | -114.91522 | 15410 ft | 365 kts | 104° |
| 2026-05-07 20:57 | 35.81182 | -114.88498 | 15955 ft | 368 kts | 104° |
| 2026-05-07 20:57 | 35.80443 | -114.85459 | 16498 ft | 371 kts | 104° |
| 2026-05-07 20:57 | 35.79708 | -114.82439 | 17058 ft | 374 kts | 104° |
| 2026-05-07 20:57 | 35.78954 | -114.79343 | 17594 ft | 376 kts | 104° |
| 2026-05-07 20:58 | 35.78203 | -114.76275 | 18084 ft | 379 kts | 104° |
| 2026-05-07 20:58 | 35.77439 | -114.73144 | 18552 ft | 382 kts | 104° |
| 2026-05-07 20:58 | 35.76671 | -114.69983 | 18998 ft | 385 kts | 104° |
| 2026-05-07 20:58 | 35.75900 | -114.66816 | 19437 ft | 388 kts | 104° |
| 2026-05-07 20:59 | 35.75126 | -114.63651 | 19840 ft | 391 kts | 104° |
| 2026-05-07 20:59 | 35.74337 | -114.60434 | 20335 ft | 393 kts | 104° |
| 2026-05-07 20:59 | 35.73539 | -114.57197 | 20790 ft | 396 kts | 104° |
| 2026-05-07 20:59 | 35.72732 | -114.53930 | 21206 ft | 398 kts | 104° |
| 2026-05-07 21:00 | 35.71931 | -114.50691 | 21582 ft | 401 kts | 104° |
| 2026-05-07 21:00 | 35.71110 | -114.47390 | 22008 ft | 404 kts | 105° |
| 2026-05-07 21:00 | 35.70018 | -114.44177 | 22436 ft | 410 kts | 115° |
| 2026-05-07 21:00 | 35.68492 | -114.41191 | 22827 ft | 416 kts | 124° |
| 2026-05-07 21:01 | 35.66548 | -114.38512 | 23209 ft | 422 kts | 134° |
| 2026-05-07 21:01 | 35.64314 | -114.36125 | 23549 ft | 426 kts | 137° |
| 2026-05-07 21:01 | 35.62080 | -114.33774 | 23896 ft | 428 kts | 136° |
| 2026-05-07 21:01 | 35.59807 | -114.31378 | 24254 ft | 430 kts | 136° |
| 2026-05-07 21:02 | 35.57525 | -114.28972 | 24599 ft | 432 kts | 136° |
| 2026-05-07 21:02 | 35.55238 | -114.26560 | 24958 ft | 434 kts | 136° |
| 2026-05-07 21:02 | 35.52966 | -114.24164 | 25270 ft | 436 kts | 136° |
| 2026-05-07 21:02 | 35.50656 | -114.21729 | 25614 ft | 437 kts | 136° |
| 2026-05-07 21:03 | 35.48330 | -114.19283 | 25953 ft | 440 kts | 136° |
| 2026-05-07 21:03 | 35.46024 | -114.16858 | 26339 ft | 442 kts | 136° |
| 2026-05-07 21:03 | 35.43662 | -114.14380 | 26701 ft | 444 kts | 136° |
| 2026-05-07 21:03 | 35.41322 | -114.11927 | 27055 ft | 446 kts | 136° |
| 2026-05-07 21:04 | 35.38954 | -114.09444 | 27358 ft | 449 kts | 136° |
| 2026-05-07 21:04 | 35.36596 | -114.06971 | 27674 ft | 451 kts | 136° |
| 2026-05-07 21:04 | 35.34234 | -114.04415 | 27987 ft | 451 kts | 131° |
| 2026-05-07 21:04 | 35.32197 | -114.01541 | 28289 ft | 449 kts | 122° |
| 2026-05-07 21:05 | 35.30560 | -113.98302 | 28578 ft | 446 kts | 112° |
| 2026-05-07 21:05 | 35.29372 | -113.94794 | 28883 ft | 443 kts | 103° |
| 2026-05-07 21:05 | 35.28590 | -113.91191 | 29054 ft | 441 kts | 100° |
| 2026-05-07 21:06 | 35.27110 | -113.84018 | 29084 ft | 427 kts | 100° |
| 2026-05-07 21:06 | 35.25650 | -113.77035 | 29053 ft | 425 kts | 100° |
| 2026-05-07 21:07 | 35.24178 | -113.70010 | 29022 ft | 424 kts | 100° |
| 2026-05-07 21:07 | 35.22725 | -113.63033 | 28986 ft | 424 kts | 99° |
| 2026-05-07 21:08 | 35.21382 | -113.56014 | 28949 ft | 423 kts | 98° |
| 2026-05-07 21:08 | 35.20102 | -113.49023 | 28938 ft | 423 kts | 98° |
| 2026-05-07 21:09 | 35.18782 | -113.41988 | 28952 ft | 423 kts | 98° |
| 2026-05-07 21:09 | 35.17421 | -113.35005 | 28958 ft | 425 kts | 102° |
| 2026-05-07 21:10 | 35.14883 | -113.28420 | 28949 ft | 434 kts | 119° |
| 2026-05-07 21:10 | 35.11523 | -113.22288 | 28958 ft | 434 kts | 119° |
| 2026-05-07 21:11 | 35.08175 | -113.16174 | 28953 ft | 434 kts | 119° |
| 2026-05-07 21:11 | 35.06489 | -113.13099 | 28807 ft | 435 kts | 119° |
| 2026-05-07 21:11 | 35.03122 | -113.06980 | 28335 ft | 435 kts | 120° |
| 2026-05-07 21:12 | 35.01423 | -113.03905 | 28118 ft | 435 kts | 120° |
| 2026-05-07 21:12 | 34.99726 | -113.00843 | 27884 ft | 436 kts | 120° |
| 2026-05-07 21:12 | 34.98023 | -112.97776 | 27647 ft | 436 kts | 120° |
| 2026-05-07 21:12 | 34.96339 | -112.94748 | 27431 ft | 436 kts | 120° |
| 2026-05-07 21:13 | 34.94632 | -112.91682 | 27196 ft | 435 kts | 120° |
| 2026-05-07 21:13 | 34.92927 | -112.88622 | 26977 ft | 434 kts | 120° |
| 2026-05-07 21:13 | 34.91255 | -112.85614 | 26745 ft | 433 kts | 120° |
| 2026-05-07 21:13 | 34.89563 | -112.82574 | 26519 ft | 431 kts | 120° |
| 2026-05-07 21:14 | 34.87883 | -112.79554 | 26297 ft | 429 kts | 120° |
| 2026-05-07 21:14 | 34.86209 | -112.76544 | 26070 ft | 427 kts | 120° |
| 2026-05-07 21:14 | 34.84542 | -112.73545 | 25847 ft | 426 kts | 120° |
| 2026-05-07 21:14 | 34.82900 | -112.70598 | 25630 ft | 424 kts | 120° |
| 2026-05-07 21:15 | 34.81239 | -112.67625 | 25413 ft | 423 kts | 120° |
| 2026-05-07 21:15 | 34.79601 | -112.64698 | 25196 ft | 421 kts | 120° |
| 2026-05-07 21:15 | 34.77951 | -112.61754 | 24974 ft | 419 kts | 120° |
| 2026-05-07 21:15 | 34.76307 | -112.58828 | 24754 ft | 417 kts | 120° |
| 2026-05-07 21:16 | 34.74671 | -112.55918 | 24538 ft | 416 kts | 120° |
| 2026-05-07 21:16 | 34.73036 | -112.53009 | 24321 ft | 414 kts | 120° |
| 2026-05-07 21:16 | 34.71428 | -112.50159 | 24098 ft | 414 kts | 122° |
| 2026-05-07 21:16 | 34.69548 | -112.47475 | 24067 ft | 417 kts | 131° |
| 2026-05-07 21:17 | 34.67345 | -112.45148 | 23507 ft | 418 kts | 137° |
| 2026-05-07 21:17 | 34.65112 | -112.42970 | 22998 ft | 413 kts | 138° |
| 2026-05-07 21:17 | 34.62867 | -112.40790 | 22533 ft | 410 kts | 138° |
| 2026-05-07 21:17 | 34.60640 | -112.38628 | 22063 ft | 406 kts | 137° |
| 2026-05-07 21:18 | 34.58464 | -112.36513 | 21604 ft | 402 kts | 137° |
| 2026-05-07 21:18 | 34.56286 | -112.34394 | 21123 ft | 399 kts | 137° |
| 2026-05-07 21:18 | 34.54137 | -112.32297 | 20649 ft | 396 kts | 137° |
| 2026-05-07 21:18 | 34.52013 | -112.30225 | 20177 ft | 393 kts | 137° |
| 2026-05-07 21:19 | 34.49884 | -112.28147 | 19705 ft | 390 kts | 137° |
| 2026-05-07 21:19 | 34.47770 | -112.26082 | 19239 ft | 387 kts | 137° |
| 2026-05-07 21:19 | 34.45657 | -112.24192 | 19005 ft | 377 kts | 145° |
| 2026-05-07 21:19 | 34.43315 | -112.22817 | 18649 ft | 372 kts | 157° |
| 2026-05-07 21:20 | 34.40805 | -112.22014 | 18383 ft | 373 kts | 165° |
| 2026-05-07 21:20 | 34.38263 | -112.21366 | 17951 ft | 371 kts | 165° |
| 2026-05-07 21:20 | 34.35734 | -112.20718 | 17554 ft | 369 kts | 165° |
| 2026-05-07 21:20 | 34.33259 | -112.20080 | 17181 ft | 367 kts | 165° |
| 2026-05-07 21:21 | 34.30761 | -112.19434 | 16840 ft | 365 kts | 165° |
| 2026-05-07 21:21 | 34.28275 | -112.18790 | 16486 ft | 363 kts | 165° |
| 2026-05-07 21:21 | 34.25826 | -112.18154 | 16109 ft | 361 kts | 166° |
| 2026-05-07 21:21 | 34.23375 | -112.17517 | 15730 ft | 358 kts | 166° |
| 2026-05-07 21:22 | 34.20938 | -112.16884 | 15367 ft | 356 kts | 166° |
| 2026-05-07 21:22 | 34.18534 | -112.16263 | 15001 ft | 354 kts | 167° |
| 2026-05-07 21:22 | 34.16116 | -112.15639 | 14626 ft | 355 kts | 166° |
| 2026-05-07 21:22 | 34.13695 | -112.15016 | 14259 ft | 355 kts | 166° |
| 2026-05-07 21:23 | 34.11331 | -112.14409 | 14040 ft | 345 kts | 167° |
| 2026-05-07 21:23 | 34.09015 | -112.13812 | 13836 ft | 335 kts | 165° |
| 2026-05-07 21:23 | 34.06828 | -112.12984 | 13630 ft | 327 kts | 160° |
| 2026-05-07 21:23 | 34.04671 | -112.12102 | 13351 ft | 322 kts | 160° |
| 2026-05-07 21:24 | 34.02595 | -112.11259 | 13063 ft | 317 kts | 160° |
| 2026-05-07 21:24 | 34.00510 | -112.10412 | 12769 ft | 315 kts | 160° |
| 2026-05-07 21:24 | 33.98424 | -112.09564 | 12460 ft | 313 kts | 160° |
| 2026-05-07 21:24 | 33.96358 | -112.08726 | 12163 ft | 312 kts | 160° |
| 2026-05-07 21:25 | 33.94322 | -112.07901 | 11867 ft | 311 kts | 160° |
| 2026-05-07 21:25 | 33.92269 | -112.07071 | 11573 ft | 310 kts | 160° |
| 2026-05-07 21:25 | 33.90247 | -112.06252 | 11288 ft | 308 kts | 160° |
| 2026-05-07 21:25 | 33.88213 | -112.05423 | 10991 ft | 307 kts | 160° |
| 2026-05-07 21:26 | 33.86186 | -112.04596 | 10692 ft | 306 kts | 160° |
| 2026-05-07 21:26 | 33.84167 | -112.03772 | 10384 ft | 305 kts | 160° |
| 2026-05-07 21:26 | 33.82183 | -112.02964 | 10082 ft | 303 kts | 161° |
| 2026-05-07 21:26 | 33.80186 | -112.02154 | 9769 ft | 301 kts | 161° |
| 2026-05-07 21:27 | 33.78197 | -112.01346 | 9446 ft | 300 kts | 161° |
| 2026-05-07 21:27 | 33.76226 | -112.00545 | 9141 ft | 301 kts | 161° |
| 2026-05-07 21:27 | 33.74247 | -111.99747 | 8992 ft | 298 kts | 161° |
| 2026-05-07 21:27 | 33.72267 | -111.98954 | 8940 ft | 298 kts | 161° |
| 2026-05-07 21:28 | 33.70319 | -111.98172 | 8875 ft | 298 kts | 161° |
| 2026-05-07 21:28 | 33.68351 | -111.97379 | 8796 ft | 295 kts | 161° |
| 2026-05-07 21:28 | 33.66442 | -111.96605 | 8661 ft | 284 kts | 161° |
| 2026-05-07 21:28 | 33.64599 | -111.95855 | 8534 ft | 275 kts | 161° |
| 2026-05-07 21:29 | 33.62811 | -111.95126 | 8398 ft | 274 kts | 161° |
| 2026-05-07 21:29 | 33.61004 | -111.94393 | 8095 ft | 273 kts | 161° |
| 2026-05-07 21:29 | 33.59194 | -111.93664 | 7746 ft | 272 kts | 161° |
| 2026-05-07 21:29 | 33.57421 | -111.92949 | 7392 ft | 272 kts | 161° |
| 2026-05-07 21:30 | 33.55624 | -111.92225 | 7110 ft | 268 kts | 161° |
| 2026-05-07 21:30 | 33.54035 | -111.91161 | 6995 ft | 257 kts | 135° |
| 2026-05-07 21:30 | 33.53302 | -111.90079 | 7003 ft | 251 kts | 118° |
| 2026-05-07 21:30 | 33.52761 | -111.87428 | 7005 ft | 249 kts | 84° |
| 2026-05-07 21:31 | 33.53079 | -111.85395 | 7006 ft | 248 kts | 76° |
| 2026-05-07 21:31 | 33.53339 | -111.84053 | 7004 ft | 248 kts | 76° |
| 2026-05-07 21:31 | 33.53730 | -111.82032 | 6986 ft | 248 kts | 75° |
| 2026-05-07 21:31 | 33.54121 | -111.80005 | 6989 ft | 248 kts | 76° |
| 2026-05-07 21:32 | 33.54507 | -111.78010 | 6990 ft | 248 kts | 76° |
| 2026-05-07 21:32 | 33.54900 | -111.75985 | 6988 ft | 249 kts | 76° |
| 2026-05-07 21:32 | 33.55289 | -111.73983 | 6988 ft | 249 kts | 76° |
| 2026-05-07 21:32 | 33.55686 | -111.71951 | 6988 ft | 249 kts | 75° |
| 2026-05-07 21:33 | 33.56078 | -111.69926 | 6986 ft | 249 kts | 76° |
| 2026-05-07 21:33 | 33.56470 | -111.67895 | 6985 ft | 249 kts | 76° |
| 2026-05-07 21:33 | 33.56857 | -111.65888 | 6982 ft | 249 kts | 76° |
| 2026-05-07 21:33 | 33.57249 | -111.63862 | 6981 ft | 250 kts | 76° |
| 2026-05-07 21:34 | 33.57641 | -111.61827 | 6975 ft | 249 kts | 76° |
| 2026-05-07 21:34 | 33.57920 | -111.59796 | 6970 ft | 250 kts | 91° |
| 2026-05-07 21:34 | 33.57511 | -111.57786 | 6972 ft | 250 kts | 118° |
| 2026-05-07 21:34 | 33.56385 | -111.56204 | 6935 ft | 250 kts | 146° |
| 2026-05-07 21:35 | 33.54803 | -111.55390 | 6934 ft | 249 kts | 172° |
| 2026-05-07 21:35 | 33.53107 | -111.55508 | 6936 ft | 248 kts | 198° |
| 2026-05-07 21:35 | 33.51470 | -111.56198 | 6936 ft | 249 kts | 200° |
| 2026-05-07 21:35 | 33.49851 | -111.56890 | 6981 ft | 249 kts | 200° |
| 2026-05-07 21:36 | 33.48218 | -111.57584 | 6983 ft | 248 kts | 200° |
| 2026-05-07 21:36 | 33.46587 | -111.58291 | 6981 ft | 249 kts | 205° |
| 2026-05-07 21:36 | 33.45186 | -111.59445 | 6984 ft | 246 kts | 228° |
| 2026-05-07 21:36 | 33.44256 | -111.61170 | 6852 ft | 247 kts | 250° |
| 2026-05-07 21:37 | 33.43967 | -111.63155 | 6543 ft | 244 kts | 271° |
| 2026-05-07 21:37 | 33.43992 | -111.65176 | 6253 ft | 241 kts | 271° |
| 2026-05-07 21:37 | 33.44006 | -111.67174 | 5950 ft | 238 kts | 271° |
| 2026-05-07 21:37 | 33.44015 | -111.69149 | 5685 ft | 236 kts | 271° |
| 2026-05-07 21:38 | 33.44021 | -111.71114 | 5412 ft | 234 kts | 270° |
| 2026-05-07 21:38 | 33.44026 | -111.73060 | 5139 ft | 231 kts | 270° |
| 2026-05-07 21:38 | 33.44031 | -111.74963 | 4877 ft | 230 kts | 270° |
| 2026-05-07 21:38 | 33.44036 | -111.76891 | 4607 ft | 230 kts | 270° |
| 2026-05-07 21:39 | 33.44041 | -111.78813 | 4339 ft | 231 kts | 270° |
| 2026-05-07 21:39 | 33.44046 | -111.80741 | 4060 ft | 232 kts | 270° |
| 2026-05-07 21:39 | 33.44051 | -111.82674 | 3788 ft | 233 kts | 270° |
| 2026-05-07 21:39 | 33.44056 | -111.84578 | 3512 ft | 228 kts | 270° |
| 2026-05-07 21:40 | 33.44057 | -111.86468 | 3185 ft | 224 kts | 270° |
| 2026-05-07 21:40 | 33.44061 | -111.88319 | 2881 ft | 219 kts | 270° |
| 2026-05-07 21:40 | 33.44065 | -111.90098 | 2627 ft | 213 kts | 270° |
| 2026-05-07 21:40 | 33.44068 | -111.91818 | 2365 ft | 196 kts | 270° |
| 2026-05-07 21:41 | 33.44072 | -111.93357 | 2127 ft | 173 kts | 270° |
| 2026-05-07 21:41 | 33.44074 | -111.94732 | 1912 ft | 158 kts | 270° |
| 2026-05-07 21:41 | 33.44076 | -111.96004 | 1721 ft | 151 kts | 269° |
| 2026-05-07 21:41 | 33.44077 | -111.97248 | 1515 ft | 147 kts | 269° |
| 2026-05-07 21:42 | 33.44074 | -111.98465 | 1310 ft | 146 kts | 270° |
| 2026-05-07 21:42 | 33.44082 | -111.99667 | 1142 ft | 141 kts | 270° |
| 2026-05-07 21:42 | 33.44084 | -112.00691 | 1130 ft | 105 kts | 271° |
| 2026-05-07 21:42 | 33.44091 | -112.01240 | 1132 ft | 35 kts | 270° |
| 2026-05-07 21:43 | 33.44046 | -112.01346 | 1136 ft | 11 kts | 201° |
| 2026-05-07 21:43 | 33.43977 | -112.01324 | 1135 ft | 11 kts | 127° |
| 2026-05-07 21:43 | 33.43985 | -112.01266 | 1133 ft | 6 kts | 84° |
| 2026-05-07 21:43 | 33.43984 | -112.01215 | 1132 ft | 7 kts | 93° |
| 2026-05-07 21:44 | 33.43979 | -112.01153 | 1136 ft | 8 kts | 97° |
| 2026-05-07 21:44 | 33.43974 | -112.01076 | 1131 ft | 10 kts | 92° |
| 2026-05-07 21:44 | 33.43975 | -112.00981 | 1134 ft | 12 kts | 89° |
| 2026-05-07 21:44 | 33.43974 | -112.00870 | 1130 ft | 14 kts | 92° |
| 2026-05-07 21:45 | 33.43974 | -112.00748 | 1134 ft | 15 kts | 87° |
| 2026-05-07 21:45 | 33.43974 | -112.00617 | 1134 ft | 16 kts | 91° |
| 2026-05-07 21:45 | 33.43959 | -112.00478 | 1133 ft | 17 kts | 128° |
| 2026-05-07 21:45 | 33.43906 | -112.00400 | 1133 ft | 13 kts | 85° |
| 2026-05-07 21:46 | 33.43889 | -112.00300 | 1134 ft | 11 kts | 154° |
| 2026-05-07 21:46 | 33.43830 | -112.00302 | 1134 ft | 0 kts | 182° |
| 2026-05-07 21:46 | 33.43821 | -112.00297 | 1131 ft | 5 kts | 152° |
| 2026-05-07 21:46 | 33.43800 | -112.00251 | 1133 ft | 4 kts | 108° |
| 2026-05-07 21:47 | 33.43798 | -112.00244 | 1134 ft | 0 kts | 105° |